Skip to Main Content
SEARCH:
Location Air RH Dwp Precip Type Wind Speed Wind Gust Direction Pavement Temperature Date/Time
Hatem Bridge US 40 E/B 38 48 20 None 8 mph 12 mph NW 32 - 32 11/22/2017 10:16:00 PM
I-270 at I-370 36 63 24 None Calm Calm W 38 - 40 11/22/2017 10:15:00 PM
I-270 at MD-109 36 65 25 None Calm Calm E 37 - 40 11/22/2017 10:15:00 PM
I-495 at American Legion Bridge 34 67 25 None Calm Calm NW 41 - 42 11/22/2017 10:15:00 PM
I-68 at MD-219 24 87 21 None 8 mph 17 mph NW 25 - 30 11/22/2017 10:15:00 PM
I-68 at Savage Mt 25 78 20 None 4 mph 10 mph W 31 - 32 11/22/2017 10:15:00 PM
I-68 at Sideling Hill 32 67 23 None Calm 6 mph SE 37 - 37 11/22/2017 10:15:00 PM
I-68 at WV Line 28 66 18 None 5 mph 10 mph NW 30 - 33 11/22/2017 10:15:00 PM
I-695 at I-83 35 58 22 None Calm 7 mph N 38 - 39 11/22/2017 10:15:00 PM
I-70 at Fred-Wash Co. 33 69 24 None 6 mph 15 mph NW 36 - 38 11/22/2017 10:15:00 PM
I-70 at I-695 35 60 23 None Calm 6 mph W 37 - 43 11/22/2017 10:15:00 PM
I-70 at I-81 37 60 24 None Calm 5 mph NW - 11/22/2017 10:15:00 PM
I-70 at MD-27 33 66 23 None Calm 4 mph N 35 - 35 11/22/2017 10:15:00 PM
I-70 at MD-32 32 68 23 None Calm Calm W 38 - 38 11/22/2017 10:15:00 PM
I-83 at MD-137 34 65 24 None Calm Calm SW 38 - 38 11/22/2017 10:15:00 PM
I-95 at I-695 NE 37 53 22 None Calm 9 mph NW 39 - 40 11/22/2017 10:16:00 PM
I-95 at Patuxent River 37 58 24 None Calm 7 mph N 41 - 43 11/22/2017 10:15:00 PM
I-95 at Tydings Bridge 37 59 24 None Calm 4 mph N - 11/22/2017 10:15:00 PM
I-95/495 at I-295 42 51 26 None 6 mph 11 mph N 41 - 46 11/22/2017 10:15:00 PM
I-97 at MD-100 37 58 23 None 7 mph 10 mph NW 40 - 40 11/22/2017 10:15:00 PM
I-97 at MD-32 36 61 24 None 9 mph 11 mph N 40 - 40 11/22/2017 10:15:00 PM
MD 20 at MD 21 38 55 24 None 10 mph 18 mph N 40 - 40 11/22/2017 10:15:00 PM
MD 231 at Patuxent River 38 60 26 None 7 mph 13 mph NW 40 - 41 11/22/2017 10:15:00 PM
MD 260 at Cox Rd 37 60 25 None Calm 5 mph N 43 - 43 11/22/2017 10:15:00 PM
MD-135 at Salt Dome 24 89 21 None Calm 11 mph NW 29 - 29 11/22/2017 10:15:00 PM
MD-140 at MD-97 33 62 21 None 6 mph 10 mph NW 36 - 36 11/22/2017 10:15:00 PM
MD-200 EB at Bonifant Rd 35 64 24 None Calm Calm NE 34 - 37 11/22/2017 10:16:00 PM
MD-200 WB at Muncaster Mill Rd 33 65 22 None Calm Calm W 34 - 37 11/22/2017 10:16:00 PM
MD-213 at Sassafras River 39 59 26 None 4 mph 9 mph NW 38 - 38 11/22/2017 10:15:00 PM
MD-24 at Rock St Park 34 72 26 None Calm Calm N 35 - 35 11/22/2017 10:15:00 PM
MD-30 at PA Line 31 72 23 None 6 mph 11 mph NW 35 - 35 11/22/2017 10:15:00 PM
MD-301 at MD-305 38 56 24 None 11 mph 21 mph NW 39 - 40 11/22/2017 10:15:00 PM
MD-33 at Knapps Narrows Drawbridge 41 61 28 None 18 mph 26 mph NW 43 - 43 11/22/2017 10:15:00 PM
MD-344 at MD-224 37 57 24 None 5 mph 11 mph W 40 - 40 11/22/2017 10:15:00 PM
MD-4 at Patuxent River 41 63 29 None - - No Data Available 42 - 44 11/22/2017 10:15:00 PM
MD-404 at Choptank River 38 56 24 None 5 mph 11 mph N 40 - 41 11/22/2017 10:15:00 PM
MD-43 at MD-150 37 56 23 None Calm 6 mph W 40 - 41 11/22/2017 10:15:00 PM
MD-51 at Oldtown Salt Dome 34 57 21 None Calm 4 mph E 40 - 40 11/22/2017 10:15:00 PM
MD-64 at MD-418 33 63 22 None 12 mph 18 mph NW 36 - 37 11/22/2017 10:15:00 PM
US 50 East past MD-347 - - - No Data Available - - No Data Available 39 - 39 11/22/2017 10:15:00 PM
US-1 at Baltimore / Harford Co. Line 33 73 26 None Calm Calm S 37 - 38 11/22/2017 10:15:00 PM
US-1 at Conowingo Dam 37 59 24 None Calm 5 mph N 42 - 42 11/22/2017 10:15:00 PM
US-13 at US-113 41 64 29 None 7 mph 13 mph N 44 - 45 11/22/2017 10:15:00 PM
US-13 at US-50 - - - No Data Available - - No Data Available -
US-15 at MD-140 34 58 21 None Calm Calm W 35 - 37 11/22/2017 10:15:00 PM
US-301 at MD-5 36 67 26 None Calm 5 mph W 42 - 42 11/22/2017 10:15:00 PM
US-301 at Potomac 43 67 33 None 19 mph 26 mph NW 39 - 43 11/22/2017 10:15:00 PM
US-301 on HWN Bridge 40 56 25 None - - No Data Available 35 - 35 11/22/2017 10:16:00 PM
US-340 at MD-180 35 60 22 None 5 mph 9 mph NW 36 - 37 11/22/2017 10:15:00 PM
US-50 at Choptank 41 61 28 None 5 mph 9 mph N 42 - 43 11/22/2017 10:15:00 PM
US-50 at I-95 40 54 24 None Calm 5 mph NW 40 - 43 11/22/2017 10:15:00 PM
US-50 at MD-2 38 55 24 None 4 mph 14 mph NW 42 - 42 11/22/2017 10:15:00 PM
US-50 at MD-331 40 61 28 None 9 mph 16 mph N 42 - 46 11/22/2017 10:15:00 PM
US-50 at OC Drawbridge 41 61 29 None 10 mph 16 mph NW 43 - 43 11/22/2017 10:15:00 PM
US-50 at Table Rock Rd 24 89 21 None 5 mph 9 mph NW 31 - 31 11/22/2017 10:15:00 PM
US-50 Kent Narrow Bridge 41 58 28 None 14 mph 24 mph NW 43 - 44 11/22/2017 10:15:00 PM
WPL Pier 31 39 50 22 Rain 24 mph 26 mph NW 35 - 35 11/22/2017 10:16:00 PM
Location Air RH Dwp Precip Type Wind Speed Wind Gust Direction Pavement Temperature Date/Time